Time;durP1;ratioP1;P1;durP2;ratioP2;P2;SDS_P1;SDS_P2;PMS_P1;PMS_P2;Temp;Humidity;BMP_temperature;BMP_pressure;BME280_temperature;BME280_humidity;BME280_pressure;Samples;Min_cycle;Max_cycle;Signal;HPM_P1;HPM_P2
2022/08/12 00:49:39;;;;;;;3.33;3.03;;;;;;;21.70;54.95;102161.66;5973712;29;20239;-67
2022/08/12 00:53:02;;;;;;;2.95;2.33;;;;;;;21.80;54.56;102159.53;5973594;29;20244;-67
2022/08/12 00:56:28;;;;;;;2.58;2.28;;;;;;;21.81;54.44;102158.53;5970905;29;20239;-67
2022/08/12 00:59:51;;;;;;;2.33;2.00;;;;;;;21.92;53.17;102154.56;5973172;29;20235;-66
2022/08/12 01:03:18;;;;;;;10.18;2.40;;;;;;;21.75;54.40;102158.38;5976759;29;20810;-66
2022/08/12 01:14:00;;;;;;;2.55;2.10;;;;;;;21.65;54.54;102161.34;5965714;29;20626;-66
2022/08/12 01:17:22;;;;;;;5.97;2.42;;;;;;;21.60;54.30;102161.00;5970996;29;20232;-66
2022/08/12 01:20:49;;;;;;;2.53;1.65;;;;;;;21.65;53.71;102158.59;5972431;29;20240;-66
2022/08/12 01:24:37;;;;;;;4.43;2.78;;;;;;;21.59;54.21;102155.69;5971778;29;20239;-66
2022/08/12 01:28:00;;;;;;;8.18;2.25;;;;;;;21.56;53.88;102153.28;5972592;29;20248;-67
2022/08/12 01:31:22;;;;;;;4.88;2.60;;;;;;;21.45;54.08;102160.00;5971302;29;20244;-66
2022/08/12 01:34:50;;;;;;;2.05;1.75;;;;;;;21.29;55.46;102151.84;5972500;29;20239;-67
2022/08/12 01:38:13;;;;;;;1.95;1.77;;;;;;;21.21;55.66;102154.59;5970702;29;20321;-66
2022/08/12 01:41:43;;;;;;;2.15;1.92;;;;;;;21.10;56.06;102154.94;5968592;29;20244;-66
2022/08/12 01:45:06;;;;;;;2.00;1.80;;;;;;;21.16;54.88;102148.75;5971128;29;20370;-66
2022/08/12 01:48:54;;;;;;;4.85;2.30;;;;;;;21.05;55.64;102143.66;5973849;29;20774;-67
2022/08/12 01:52:26;;;;;;;2.38;2.25;;;;;;;21.13;56.25;102143.63;5970260;29;20504;-67
2022/08/12 01:55:48;;;;;;;2.90;1.80;;;;;;;21.02;56.17;102138.47;5972785;29;20315;-66
2022/08/12 02:03:02;;;;;;;4.22;3.00;;;;;;;21.09;55.38;102145.03;5971136;29;20888;-66
2022/08/12 02:14:31;;;;;;;2.38;2.03;;;;;;;21.06;55.37;102145.34;5970670;29;20235;-66
2022/08/12 02:18:09;;;;;;;2.25;2.05;;;;;;;21.07;55.18;102141.59;5960128;29;20243;-67
2022/08/12 02:21:38;;;;;;;3.35;2.03;;;;;;;20.79;56.00;102142.94;5975494;29;20239;-65
2022/08/12 02:25:06;;;;;;;4.32;2.22;;;;;;;20.79;55.58;102149.28;5970984;29;20235;-66
2022/08/12 02:28:28;;;;;;;2.67;1.92;;;;;;;20.65;56.17;102145.31;5969946;29;20240;-66
2022/08/12 02:31:51;;;;;;;2.63;2.30;;;;;;;20.55;56.67;102141.91;5968965;29;20244;-66
2022/08/12 02:35:18;;;;;;;2.72;2.50;;;;;;;20.63;56.00;102138.31;5970786;29;20255;-67
2022/08/12 02:38:42;;;;;;;2.33;1.80;;;;;;;20.66;56.48;102141.56;5972219;29;20235;-66
2022/08/12 02:42:05;;;;;;;3.85;2.30;;;;;;;20.59;56.54;102134.19;5969990;29;20243;-67
2022/08/12 02:45:36;;;;;;;2.47;2.20;;;;;;;20.54;56.60;102134.72;5971584;29;20243;-68
2022/08/12 02:49:05;;;;;;;2.38;2.17;;;;;;;20.44;57.30;102144.13;5972803;29;20240;-67
2022/08/12 02:52:27;;;;;;;3.60;1.92;;;;;;;20.50;56.65;102138.84;5971651;29;20231;-66
2022/08/12 02:55:49;;;;;;;2.92;2.53;;;;;;;20.35;57.30;102135.03;5968898;29;20330;-66
2022/08/12 02:59:13;;;;;;;3.22;2.70;;;;;;;20.38;57.61;102133.84;5970447;29;20247;-66
2022/08/12 03:02:37;;;;;;;2.97;2.30;;;;;;;20.24;58.58;102129.00;5971701;29;20243;-66
2022/08/12 03:06:02;;;;;;;20.40;18.58;;;;;;;20.32;58.02;102132.63;5972422;29;20346;-67
2022/08/12 03:09:25;;;;;;;7.22;6.53;;;;;;;20.25;58.27;102126.13;5972505;29;20236;-67
2022/08/12 03:12:47;;;;;;;6.30;2.75;;;;;;;20.32;58.51;102123.53;5971913;29;20239;-67
2022/08/12 03:16:08;;;;;;;4.13;2.75;;;;;;;20.11;59.12;102126.72;5968015;29;20239;-66
2022/08/12 03:19:29;;;;;;;2.30;2.10;;;;;;;20.15;59.42;102124.53;5969239;29;20232;-66
2022/08/12 03:22:53;;;;;;;2.20;2.00;;;;;;;20.28;57.96;102117.56;5971608;29;20247;-66
2022/08/12 03:26:14;;;;;;;3.33;2.38;;;;;;;20.16;58.50;102120.75;5969278;29;20240;-68
2022/08/12 03:29:37;;;;;;;6.93;6.32;;;;;;;20.16;58.90;102124.34;5968099;29;20236;-66
2022/08/12 03:33:00;;;;;;;5.00;4.53;;;;;;;20.08;59.61;102112.50;5968084;29;20247;-66
2022/08/12 03:36:22;;;;;;;4.22;3.83;;;;;;;19.94;59.93;102116.78;5970996;29;20236;-66
2022/08/12 03:39:46;;;;;;;4.57;4.18;;;;;;;19.88;59.83;102125.63;5973417;29;20235;-67
2022/08/12 04:01:27;;;;;;;6.03;4.57;;;;;;;19.75;60.81;102117.03;5966704;29;20239;-65
2022/08/12 04:04:49;;;;;;;5.28;4.47;;;;;;;19.80;60.38;102114.66;5973095;29;20240;-66
2022/08/12 04:08:13;;;;;;;8.32;7.28;;;;;;;19.63;60.84;102116.47;5970985;29;21182;-65
2022/08/12 04:15:19;;;;;;;6.68;6.07;;;;;;;19.63;60.84;102111.00;5969596;29;20591;-66
2022/08/12 04:18:41;;;;;;;4.55;4.15;;;;;;;19.86;60.02;102122.19;5973498;29;20619;-66
2022/08/12 04:22:02;;;;;;;5.28;4.82;;;;;;;19.80;60.19;102114.66;5970086;29;20611;-66
2022/08/12 04:25:24;;;;;;;5.45;4.97;;;;;;;19.69;61.03;102109.50;5970976;29;20429;-66
2022/08/12 04:28:45;;;;;;;5.07;4.68;;;;;;;19.69;60.81;102117.72;5973666;29;20244;-67
2022/08/12 04:32:08;;;;;;;11.48;10.43;;;;;;;19.72;61.07;102120.97;5972856;29;20764;-67
2022/08/12 04:35:30;;;;;;;6.13;5.38;;;;;;;19.80;61.12;102123.72;5972711;29;20243;-67
2022/08/12 04:38:52;;;;;;;5.80;5.05;;;;;;;20.00;60.85;102120.72;5971749;29;20251;-66
2022/08/12 04:42:14;;;;;;;3.60;3.22;;;;;;;19.97;60.58;102121.03;5972232;29;20757;-66
2022/08/12 04:45:38;;;;;;;6.28;3.50;;;;;;;19.97;60.10;102127.38;5968026;29;20362;-67
2022/08/12 04:49:01;;;;;;;5.80;2.83;;;;;;;20.13;59.02;102124.66;5971822;29;20235;-66
2022/08/12 04:52:23;;;;;;;2.88;2.67;;;;;;;20.11;60.01;102125.88;5971188;29;20970;-67
2022/08/12 04:55:45;;;;;;;3.33;2.58;;;;;;;20.13;60.56;102124.66;5971603;29;20244;-66
2022/08/12 04:59:06;;;;;;;2.60;2.40;;;;;;;20.17;60.24;102112.34;5974496;29;20561;-66
2022/08/12 05:02:27;;;;;;;5.05;3.58;;;;;;;20.27;59.38;102117.72;5967150;29;20251;-66
2022/08/12 05:05:50;;;;;;;4.82;3.63;;;;;;;20.31;58.88;102122.72;5971829;29;20964;-67
2022/08/12 05:09:11;;;;;;;3.45;3.15;;;;;;;20.28;59.71;102112.06;5972717;29;20331;-66
2022/08/12 05:12:36;;;;;;;6.20;3.45;;;;;;;20.38;59.00;102120.97;5969940;29;20369;-67
2022/08/12 05:15:57;;;;;;;4.80;2.60;;;;;;;20.54;57.64;102120.16;5968952;29;20259;-66
2022/08/12 05:19:20;;;;;;;4.65;2.80;;;;;;;20.54;57.76;102121.03;5970456;29;20244;-66
2022/08/12 05:22:44;;;;;;;3.38;3.08;;;;;;;20.56;57.89;102118.97;5974813;29;20235;-67
2022/08/12 05:26:06;;;;;;;6.88;2.90;;;;;;;20.58;56.97;102121.53;5970154;29;20248;-67
2022/08/12 05:29:28;;;;;;;3.35;3.05;;;;;;;20.70;57.04;102123.75;5969594;29;20232;-67
2022/08/12 05:32:49;;;;;;;3.08;2.78;;;;;;;20.97;56.71;102113.44;5970097;29;20256;-67
2022/08/12 05:36:13;;;;;;;6.22;3.20;;;;;;;21.07;56.33;102119.66;5971952;29;20267;-67
2022/08/12 05:39:36;;;;;;;3.50;3.20;;;;;;;21.12;56.38;102119.97;5964351;29;20519;-66
2022/08/12 05:42:57;;;;;;;4.63;3.30;;;;;;;22.10;54.02;102120.31;5967878;29;20848;-72
2022/08/12 05:46:18;;;;;;;7.35;3.38;;;;;;;22.11;53.16;102121.16;5971308;29;20247;-70
2022/08/12 05:49:40;;;;;;;4.63;3.20;;;;;;;21.67;54.43;102122.72;5975489;29;20236;-72
2022/08/12 05:53:02;;;;;;;3.28;2.22;;;;;;;21.57;55.41;102114.69;5972160;29;20244;-72
2022/08/12 05:56:28;;;;;;;3.30;2.92;;;;;;;21.43;55.73;102127.25;5968809;29;20239;-73
2022/08/12 05:59:48;;;;;;;5.43;3.08;;;;;;;21.42;55.71;102128.28;5972793;29;20243;-67
2022/08/12 06:03:10;;;;;;;2.80;2.60;;;;;;;21.49;55.77;102131.19;5961978;29;20227;-71
2022/08/12 06:06:37;;;;;;;4.13;2.80;;;;;;;21.75;56.01;102139.16;5976634;29;20252;-71
2022/08/12 06:09:57;;;;;;;3.58;2.38;;;;;;;21.55;55.98;102137.88;5970957;29;20259;-71
2022/08/12 06:13:20;;;;;;;4.00;2.85;;;;;;;21.75;55.61;102133.66;5969230;29;21045;-67
2022/08/12 06:16:42;;;;;;;2.55;2.35;;;;;;;22.27;53.95;102132.91;5969815;29;20252;-68
2022/08/12 06:20:04;;;;;;;3.45;3.08;;;;;;;22.24;54.14;102138.75;5971342;29;20236;-68
2022/08/12 06:23:27;;;;;;;5.28;3.38;;;;;;;22.45;53.90;102131.72;5975245;29;20319;-67
2022/08/12 06:26:48;;;;;;;2.90;2.10;;;;;;;22.24;54.01;102146.13;5970463;29;20236;-69
2022/08/12 06:30:11;;;;;;;3.05;2.60;;;;;;;22.45;54.02;102146.34;5966283;29;20239;-69
2022/08/12 06:33:32;;;;;;;3.67;2.55;;;;;;;22.80;53.11;102148.50;5977637;29;20322;-72
2022/08/12 06:36:54;;;;;;;2.60;2.40;;;;;;;22.71;53.20;102140.50;5972724;29;20235;-70
2022/08/12 06:40:15;;;;;;;7.05;2.42;;;;;;;22.46;53.12;102145.31;5970752;29;20243;-68
2022/08/12 06:43:35;;;;;;;3.17;2.63;;;;;;;22.65;53.35;102144.88;5972224;29;20346;-68
2022/08/12 06:46:58;;;;;;;2.75;2.47;;;;;;;22.85;52.99;102145.19;5976935;29;20259;-69
2022/08/12 06:50:18;;;;;;;2.85;2.50;;;;;;;23.04;52.42;102151.06;5963700;29;20263;-67
2022/08/12 06:53:41;;;;;;;5.97;2.30;;;;;;;23.08;51.99;102145.16;5963591;29;20232;-68
2022/08/12 06:57:02;;;;;;;2.97;2.60;;;;;;;23.15;52.05;102138.75;5971702;29;20232;-68
2022/08/12 07:00:26;;;;;;;3.08;2.22;;;;;;;23.10;51.73;102146.69;5959684;29;20372;-67
2022/08/12 07:03:50;;;;;;;2.45;2.20;;;;;;;23.05;52.33;102141.75;5973686;29;20243;-68
2022/08/12 07:07:11;;;;;;;3.08;2.83;;;;;;;23.29;52.47;102137.91;5971972;29;20235;-70
2022/08/12 07:10:33;;;;;;;3.05;2.58;;;;;;;22.99;51.62;102133.38;5967706;29;20239;-68
2022/08/12 07:13:57;;;;;;;2.63;2.42;;;;;;;23.03;52.56;102134.69;5971177;29;20232;-68
2022/08/12 07:17:18;;;;;;;2.17;1.98;;;;;;;23.61;51.67;102143.03;5970485;29;20255;-68
2022/08/12 07:20:42;;;;;;;3.10;2.22;;;;;;;23.04;51.41;102139.19;5971271;29;20247;-68
2022/08/12 07:24:04;;;;;;;3.17;2.88;;;;;;;23.04;51.72;102128.19;5970783;29;20244;-68
2022/08/12 07:27:26;;;;;;;2.58;2.35;;;;;;;23.16;51.61;102136.81;5963824;29;20247;-69
2022/08/12 07:30:48;;;;;;;3.10;2.45;;;;;;;23.27;51.59;102139.13;5971070;29;20575;-69
2022/08/12 07:34:09;;;;;;;3.42;2.80;;;;;;;23.82;51.41;102129.34;5970003;29;20231;-69
2022/08/12 07:37:33;;;;;;;2.75;2.50;;;;;;;23.91;50.50;102134.78;5967929;29;20327;-67
2022/08/12 07:40:57;;;;;;;2.92;2.55;;;;;;;23.98;50.17;102132.94;5970242;29;20236;-67
2022/08/12 07:44:18;;;;;;;5.75;3.35;;;;;;;24.22;50.53;102141.75;5971290;29;20243;-68
2022/08/12 07:47:42;;;;;;;2.50;2.28;;;;;;;24.25;50.12;102135.88;5968543;29;20373;-67
2022/08/12 07:51:03;;;;;;;2.10;1.88;;;;;;;24.53;49.85;102138.72;5968493;29;20236;-68
2022/08/12 07:54:26;;;;;;;5.32;2.60;;;;;;;24.59;49.14;102136.00;5972452;29;20236;-67
2022/08/12 07:57:57;;;;;;;4.20;2.25;;;;;;;24.72;48.46;102148.25;5967491;29;20243;-68
2022/08/12 08:01:21;;;;;;;2.60;2.30;;;;;;;24.92;49.16;102147.41;5969962;29;20679;-71
2022/08/12 08:04:59;;;;;;;2.63;2.42;;;;;;;24.95;47.69;102148.91;5967801;29;20251;-72
2022/08/12 08:08:22;;;;;;;2.25;1.80;;;;;;;24.89;48.21;102153.31;5963817;29;21021;-68
2022/08/12 08:15:25;;;;;;;3.87;2.30;;;;;;;25.06;47.35;102135.41;5960152;29;20752;-69
2022/08/12 08:18:46;;;;;;;2.95;2.60;;;;;;;25.12;46.50;102148.41;5963015;29;20688;-68
2022/08/12 08:22:09;;;;;;;2.75;1.98;;;;;;;25.36;46.72;102144.34;5965832;29;20259;-68
2022/08/12 08:25:30;;;;;;;2.35;2.15;;;;;;;25.47;47.15;102149.31;5959569;29;20240;-67
2022/08/12 08:28:53;;;;;;;2.95;2.40;;;;;;;25.71;46.55;102147.97;5965333;29;20231;-68
2022/08/12 08:46:19;;;;;;;5.23;2.77;;;;;;;26.31;44.47;102138.91;5958925;29;20763;-70
2022/08/12 08:49:40;;;;;;;2.42;2.20;;;;;;;26.21;44.35;102142.06;5974501;29;20554;-68
2022/08/12 08:53:01;;;;;;;2.88;2.58;;;;;;;26.44;43.59;102138.94;5964993;29;20232;-67
2022/08/12 08:56:22;;;;;;;5.10;2.50;;;;;;;26.42;43.13;102136.38;5975373;29;20243;-67
2022/08/12 08:59:43;;;;;;;4.70;3.05;;;;;;;26.38;43.55;102148.94;5976485;29;20228;-69
2022/08/12 09:03:06;;;;;;;3.97;2.17;;;;;;;26.64;43.94;102139.84;5976141;29;20554;-69
2022/08/12 09:06:27;;;;;;;2.75;2.42;;;;;;;26.80;43.59;102145.00;5975680;29;20243;-70
2022/08/12 09:09:49;;;;;;;6.13;2.88;;;;;;;26.86;43.48;102144.16;5977901;29;20798;-70
2022/08/12 09:13:30;;;;;;;10.30;2.55;;;;;;;26.86;43.01;102141.38;5976270;29;20243;-70
2022/08/12 09:16:51;;;;;;;3.20;2.42;;;;;;;26.97;42.69;102137.13;5974258;29;20533;-70
2022/08/12 09:20:16;;;;;;;2.35;2.20;;;;;;;27.18;42.17;102132.19;5973947;29;20232;-70
2022/08/12 09:23:37;;;;;;;2.45;2.00;;;;;;;27.13;41.74;102139.44;5980511;29;20239;-70
2022/08/12 09:26:58;;;;;;;3.72;2.28;;;;;;;26.97;41.50;102135.22;5978826;29;20330;-71
2022/08/12 09:30:20;;;;;;;4.57;2.38;;;;;;;27.22;41.72;102127.09;5977061;29;20720;-70
2022/08/12 09:33:41;;;;;;;2.60;2.40;;;;;;;27.08;41.24;102130.97;5965777;29;20247;-70
2022/08/12 09:37:03;;;;;;;2.72;2.45;;;;;;;27.35;40.57;102124.34;5982273;29;20240;-71
2022/08/12 09:40:25;;;;;;;4.40;2.53;;;;;;;27.53;41.43;102122.59;5978897;29;20220;-71
2022/08/12 09:47:27;;;;;;;3.33;2.22;;;;;;;27.45;40.57;102121.97;5979246;29;20240;-70
2022/08/12 09:50:49;;;;;;;4.22;2.58;;;;;;;27.23;41.63;102126.88;5976245;29;20244;-70
2022/08/12 09:54:12;;;;;;;4.43;1.95;;;;;;;27.34;41.43;102115.19;5977341;29;20244;-72
2022/08/12 09:57:34;;;;;;;6.72;2.30;;;;;;;27.78;40.35;102106.09;5974995;29;20240;-71
2022/08/12 10:00:56;;;;;;;2.00;1.90;;;;;;;27.91;40.05;102106.06;5972939;29;20256;-70
2022/08/12 10:04:17;;;;;;;3.33;2.55;;;;;;;28.08;39.84;102103.66;5976347;29;20326;-70
2022/08/12 10:07:38;;;;;;;4.35;2.47;;;;;;;28.24;40.46;102092.03;5979948;29;20842;-70
2022/08/12 10:14:43;;;;;;;4.10;2.92;;;;;;;28.42;39.41;102087.44;5971820;29;20243;-70
2022/08/12 10:18:04;;;;;;;4.93;2.90;;;;;;;28.70;38.61;102091.75;5972764;29;20243;-72
2022/08/12 10:21:29;;;;;;;7.05;2.80;;;;;;;28.53;37.71;102074.75;5972746;29;20228;-72
2022/08/12 10:32:06;;;;;;;3.95;2.60;;;;;;;29.03;37.07;102068.16;5967551;29;20243;-73
2022/08/12 10:35:31;;;;;;;7.70;2.67;;;;;;;28.85;36.07;102061.72;5975305;29;20326;-73
2022/08/12 10:38:53;;;;;;;2.60;2.40;;;;;;;29.20;35.35;102055.41;5966105;29;21370;-73
2022/08/12 10:45:56;;;;;;;2.72;2.05;;;;;;;29.06;32.26;102042.69;5972542;29;20271;-73
2022/08/12 10:49:17;;;;;;;4.45;2.70;;;;;;;29.09;33.34;102038.59;5968205;29;20623;-73
2022/08/12 10:52:40;;;;;;;3.35;2.60;;;;;;;29.53;33.20;102032.78;5973339;29;20267;-72
2022/08/12 10:56:01;;;;;;;3.92;2.05;;;;;;;29.85;31.92;102031.50;5972709;29;20235;-73
2022/08/12 10:59:21;;;;;;;4.25;2.10;;;;;;;30.14;31.74;102026.19;5971018;29;20239;-71
2022/08/12 11:02:53;;;;;;;2.72;2.50;;;;;;;30.23;31.64;102030.34;5973563;29;20228;-71
2022/08/12 11:06:14;;;;;;;2.60;2.40;;;;;;;30.33;32.18;102025.06;5974521;29;20235;-72
2022/08/12 11:09:36;;;;;;;2.42;2.22;;;;;;;30.19;30.82;102017.97;5972324;29;20243;-72
2022/08/12 11:12:58;;;;;;;3.30;2.20;;;;;;;30.13;30.71;102019.78;5962521;29;20286;-70
2022/08/12 11:16:19;;;;;;;3.25;2.00;;;;;;;30.49;31.10;102024.38;5974728;29;20239;-69
2022/08/12 11:19:44;;;;;;;4.35;2.20;;;;;;;30.49;29.86;102011.31;5971245;29;20236;-70
2022/08/12 11:23:05;;;;;;;2.35;2.15;;;;;;;29.89;30.21;102018.00;5971605;29;20236;-70
2022/08/12 11:26:25;;;;;;;3.55;2.17;;;;;;;29.89;30.30;102009.66;5968010;29;20243;-69
2022/08/12 11:29:46;;;;;;;6.57;2.70;;;;;;;30.31;30.25;102014.16;5976545;29;20236;-69
2022/08/12 11:33:08;;;;;;;4.22;2.30;;;;;;;30.11;29.33;102019.16;5974700;29;20593;-73
2022/08/12 11:36:30;;;;;;;3.70;2.53;;;;;;;30.24;29.72;102009.75;5973849;29;20236;-70
2022/08/12 11:39:51;;;;;;;2.28;2.08;;;;;;;30.43;29.62;102008.63;5964663;29;20231;-72
2022/08/12 11:43:12;;;;;;;2.03;1.60;;;;;;;31.24;29.63;102009.50;5969410;29;20240;-71
2022/08/12 11:46:35;;;;;;;4.40;2.05;;;;;;;30.87;26.92;102013.66;5963731;29;20247;-72
2022/08/12 11:49:56;;;;;;;2.20;1.80;;;;;;;31.27;27.49;101997.03;5969060;29;20611;-70
2022/08/12 11:53:18;;;;;;;2.55;2.13;;;;;;;31.77;27.72;101998.09;5958283;29;20228;-68
2022/08/12 11:56:39;;;;;;;2.35;1.90;;;;;;;32.08;27.43;101988.41;5965587;29;20245;-71
2022/08/12 12:00:00;;;;;;;2.47;2.28;;;;;;;31.72;26.70;101999.94;5965071;29;20247;-72
2022/08/12 12:03:22;;;;;;;5.13;2.20;;;;;;;30.84;27.25;102000.19;5975279;29;20498;-70
2022/08/12 12:06:43;;;;;;;2.95;2.22;;;;;;;31.60;27.23;101987.97;5971059;29;20505;-71
2022/08/12 12:10:06;;;;;;;6.22;2.38;;;;;;;31.52;27.59;101980.88;5974479;29;21048;-73
2022/08/12 12:13:27;;;;;;;3.22;2.13;;;;;;;32.48;25.46;101977.13;5975009;29;22206;-75
2022/08/12 12:16:48;;;;;;;2.65;2.28;;;;;;;33.31;23.98;101976.97;5976770;29;20514;-70
2022/08/12 12:20:11;;;;;;;5.22;1.63;;;;;;;36.70;21.91;101980.59;5975092;29;20239;-69
2022/08/12 12:23:33;;;;;;;1.83;1.73;;;;;;;38.56;18.48;101973.22;5971453;29;20326;-74
2022/08/12 12:26:55;;;;;;;2.38;1.90;;;;;;;40.57;16.97;101973.41;5976141;29;20239;-74
2022/08/12 12:30:17;;;;;;;3.83;1.85;;;;;;;41.83;15.77;101981.34;5978386;29;20767;-74
2022/08/12 12:33:39;;;;;;;2.20;2.00;;;;;;;42.78;14.64;101963.91;5976251;29;20235;-71
2022/08/12 12:37:00;;;;;;;3.38;1.80;;;;;;;40.83;15.72;101970.94;5976578;29;20235;-71
2022/08/12 12:40:22;;;;;;;7.43;1.65;;;;;;;42.86;15.16;101963.13;5978679;29;20243;-68
2022/08/12 12:43:44;;;;;;;3.38;1.70;;;;;;;42.95;14.76;101958.34;5979613;29;20240;-69
2022/08/12 12:47:05;;;;;;;2.75;2.40;;;;;;;39.68;17.32;101951.91;5976572;29;20240;-70
2022/08/12 12:50:28;;;;;;;2.17;1.98;;;;;;;40.48;15.85;101944.16;5982886;29;20586;-68
2022/08/12 12:53:49;;;;;;;4.38;1.88;;;;;;;40.78;15.90;101945.56;5978628;29;20326;-69
2022/08/12 12:57:13;;;;;;;3.22;2.17;;;;;;;41.10;16.32;101941.84;5978528;29;20243;-70
2022/08/12 13:00:35;;;;;;;2.72;2.28;;;;;;;41.12;16.36;101943.19;5980623;29;20810;-74
2022/08/12 13:03:57;;;;;;;2.28;2.08;;;;;;;41.65;16.52;101939.81;5981718;29;20242;-71
2022/08/12 13:07:18;;;;;;;2.58;1.95;;;;;;;43.51;14.82;101940.50;5976565;29;20258;-72
2022/08/12 13:10:42;;;;;;;4.82;1.83;;;;;;;43.46;14.89;101938.63;5973376;29;20239;-73
2022/08/12 13:14:03;;;;;;;5.22;1.80;;;;;;;43.86;14.80;101941.38;5976478;29;20623;-73
2022/08/12 13:17:30;;;;;;;2.58;2.00;;;;;;;44.22;14.51;101933.34;5980968;29;20243;-72
2022/08/12 13:20:51;;;;;;;2.80;2.03;;;;;;;43.92;13.75;101926.66;5973602;29;20330;-75
2022/08/12 13:24:13;;;;;;;2.00;1.90;;;;;;;43.57;14.26;101928.63;5972956;29;20228;-76
2022/08/12 13:27:35;;;;;;;5.95;2.50;;;;;;;43.24;14.66;101933.09;5966525;29;20247;-75
2022/08/12 13:30:58;;;;;;;3.03;1.98;;;;;;;43.59;14.99;101923.44;5974859;29;20228;-75
2022/08/12 13:34:22;;;;;;;2.17;1.95;;;;;;;43.62;14.61;101917.09;5975516;29;20259;-77
2022/08/12 13:37:46;;;;;;;4.35;2.35;;;;;;;39.57;16.87;101913.66;5973739;29;20874;-77
2022/08/12 13:41:08;;;;;;;4.05;2.00;;;;;;;40.65;17.33;101913.28;5975274;29;20231;-77
2022/08/12 13:44:29;;;;;;;2.63;1.83;;;;;;;40.48;17.40;101917.84;5978385;29;20901;-78
2022/08/12 13:47:54;;;;;;;4.32;1.80;;;;;;;42.07;16.16;101919.53;5968828;29;20227;-77
2022/08/12 13:51:16;;;;;;;1.92;1.83;;;;;;;43.09;15.96;101915.63;5973566;29;20236;-77
2022/08/12 13:54:37;;;;;;;3.00;2.53;;;;;;;42.45;15.96;101909.50;5978844;29;20228;-76
2022/08/12 13:58:01;;;;;;;4.40;1.88;;;;;;;41.98;15.92;101908.09;5979529;29;20228;-76
2022/08/12 14:01:23;;;;;;;5.03;2.70;;;;;;;42.53;15.84;101891.66;5974794;29;20232;-78
2022/08/12 14:04:44;;;;;;;5.32;4.07;;;;;;;40.37;16.69;101896.53;5980567;29;20231;-78
2022/08/12 14:08:07;;;;;;;7.25;4.95;;;;;;;39.34;17.04;101894.75;5978091;29;20236;-77
2022/08/12 14:11:29;;;;;;;1.98;1.73;;;;;;;38.05;17.89;101890.22;5973365;29;20236;-76
2022/08/12 14:14:50;;;;;;;2.55;2.33;;;;;;;37.15;18.22;101894.41;5975236;29;20521;-77
2022/08/12 14:18:13;;;;;;;5.22;3.03;;;;;;;38.44;18.36;101891.00;5980185;29;20231;-77
2022/08/12 14:21:35;;;;;;;2.33;2.13;;;;;;;38.35;18.05;101899.25;5972772;29;20250;-78
2022/08/12 14:24:58;;;;;;;1.85;1.75;;;;;;;38.03;18.20;101892.50;5972795;29;20231;-75
2022/08/12 14:28:22;;;;;;;2.47;2.00;;;;;;;36.73;18.19;101892.88;5973445;29;21437;-77
2022/08/12 14:31:43;;;;;;;4.60;2.72;;;;;;;36.26;18.99;101894.34;5981742;29;20263;-77
2022/08/12 14:35:05;;;;;;;4.80;3.17;;;;;;;36.67;19.23;101891.19;5975838;29;20354;-77
2022/08/12 14:38:28;;;;;;;2.05;1.80;;;;;;;36.09;20.01;101880.56;5975219;29;20227;-76
2022/08/12 14:41:50;;;;;;;2.15;2.05;;;;;;;36.49;19.99;101883.34;5975961;29;20232;-76
2022/08/12 14:45:11;;;;;;;8.80;8.07;;;;;;;36.52;20.10;101879.97;5975989;29;20240;-78
2022/08/12 14:48:33;;;;;;;1.73;1.63;;;;;;;34.70;20.22;101883.47;5978780;29;20747;-77
2022/08/12 14:51:54;;;;;;;2.65;2.13;;;;;;;34.93;19.70;101870.97;5974869;29;20531;-76
2022/08/12 14:55:15;;;;;;;3.13;2.45;;;;;;;34.64;20.71;101870.53;5975691;29;20232;-76
2022/08/12 15:01:37;;;;;;;3.58;2.00;;;;;;;35.01;19.98;101867.66;5973753;29;20232;-76
2022/08/12 15:02:19;;;;;;;3.63;2.03;;;;;;;35.24;20.87;101861.56;5972330;29;20236;-76
2022/08/12 15:05:42;;;;;;;2.00;1.80;;;;;;;34.45;20.81;101867.31;5966088;29;20236;-76
2022/08/12 15:09:05;;;;;;;1.90;1.80;;;;;;;35.14;19.91;101861.53;5986644;29;20232;-76
2022/08/12 15:12:26;;;;;;;5.82;1.95;;;;;;;34.26;19.94;101859.59;5969251;29;20228;-76
2022/08/12 15:15:51;;;;;;;2.22;2.13;;;;;;;35.02;20.79;101859.00;5967211;29;20236;-76
2022/08/12 15:19:12;;;;;;;19.10;2.20;;;;;;;34.65;21.36;101851.78;5972987;29;20351;-76
2022/08/12 15:22:33;;;;;;;2.20;2.10;;;;;;;34.38;21.51;101847.09;5970754;29;20239;-76
2022/08/12 15:25:54;;;;;;;2.35;1.85;;;;;;;34.43;20.53;101847.13;5969885;29;20686;-75
2022/08/12 15:29:15;;;;;;;3.33;2.15;;;;;;;34.35;21.25;101844.84;5967088;29;20895;-76
2022/08/12 15:32:38;;;;;;;3.60;3.25;;;;;;;35.15;21.13;101844.44;5971727;29;20320;-77
2022/08/12 15:35:59;;;;;;;3.17;2.42;;;;;;;35.63;21.75;101833.91;5974807;29;20243;-76
2022/08/12 15:39:20;;;;;;;3.05;1.98;;;;;;;35.69;20.67;101833.66;5975663;29;20236;-76
2022/08/12 15:42:46;;;;;;;1.75;1.58;;;;;;;35.55;20.21;101842.91;5973662;29;20240;-76
2022/08/12 15:46:07;;;;;;;5.25;1.77;;;;;;;35.67;19.88;101841.50;5969708;29;20243;-75
2022/08/12 15:49:31;;;;;;;2.30;1.67;;;;;;;35.50;20.49;101837.25;5971268;29;20259;-76
2022/08/12 15:52:53;;;;;;;1.80;1.58;;;;;;;35.75;20.12;101834.47;5967946;29;20239;-77
2022/08/12 15:56:15;;;;;;;2.35;2.10;;;;;;;35.41;20.84;101822.06;5968123;29;20239;-76
2022/08/12 15:59:37;;;;;;;5.07;2.58;;;;;;;35.41;20.82;101822.91;5966928;29;20231;-76
2022/08/12 16:03:00;;;;;;;2.08;1.65;;;;;;;34.97;20.80;101830.03;5970668;29;20540;-76
2022/08/12 16:06:23;;;;;;;3.28;2.45;;;;;;;34.10;20.88;101821.41;5958283;29;20240;-76
2022/08/12 16:09:44;;;;;;;2.20;1.67;;;;;;;34.03;21.06;101829.19;5979696;29;20263;-75
2022/08/12 16:13:12;;;;;;;4.00;3.60;;;;;;;34.76;21.63;101817.91;5974986;29;20244;-74
2022/08/12 16:16:34;;;;;;;1.92;1.80;;;;;;;35.14;21.30;101819.47;5969310;29;20243;-76
2022/08/12 16:19:55;;;;;;;2.75;2.55;;;;;;;35.34;20.93;101806.34;5972973;29;20243;-75
2022/08/12 16:23:17;;;;;;;1.98;1.88;;;;;;;34.63;21.14;101817.56;5966622;29;20243;-75
2022/08/12 16:26:39;;;;;;;2.53;2.08;;;;;;;34.38;21.33;101823.84;5967047;29;20232;-75
2022/08/12 16:30:03;;;;;;;2.28;1.83;;;;;;;34.70;21.40;101805.00;5968805;29;20268;-76
2022/08/12 16:33:32;;;;;;;2.22;2.00;;;;;;;34.80;20.41;101799.41;5967817;29;20240;-75
2022/08/12 16:36:53;;;;;;;3.58;2.05;;;;;;;35.00;20.67;101801.50;5967095;29;20318;-75
2022/08/12 16:40:15;;;;;;;3.25;2.10;;;;;;;34.76;20.87;101794.63;5959408;29;20251;-76
2022/08/12 16:43:36;;;;;;;4.10;3.83;;;;;;;34.86;21.79;101789.09;5956773;29;20645;-75
2022/08/12 16:46:57;;;;;;;6.93;4.10;;;;;;;34.76;21.23;101798.28;5974062;29;20615;-74
2022/08/12 16:50:23;;;;;;;3.58;2.45;;;;;;;34.69;24.46;101794.91;5962990;29;20303;-75
2022/08/12 16:53:44;;;;;;;2.70;2.10;;;;;;;34.60;25.73;101802.16;5961756;29;22094;-74
2022/08/12 16:57:08;;;;;;;2.85;2.33;;;;;;;34.20;26.85;101797.13;5970940;29;20251;-74
2022/08/12 17:00:29;;;;;;;4.30;3.40;;;;;;;33.85;28.02;101799.66;5971047;29;20232;-74
2022/08/12 17:04:06;;;;;;;5.03;3.65;;;;;;;33.74;28.57;101798.72;5975179;29;20243;-74
2022/08/12 17:07:27;;;;;;;3.03;1.88;;;;;;;33.64;28.72;101798.63;5976877;29;20639;-75
2022/08/12 17:10:49;;;;;;;4.88;2.72;;;;;;;33.28;29.12;101798.50;5974822;29;20236;-77
2022/08/12 17:14:11;;;;;;;4.10;2.55;;;;;;;32.61;30.00;101797.97;5979314;29;20263;-81
2022/08/12 17:17:33;;;;;;;2.92;2.70;;;;;;;32.39;30.84;101803.53;5977683;29;20242;-75
2022/08/12 17:20:55;;;;;;;4.03;3.15;;;;;;;32.07;31.25;101796.91;5974244;29;20640;-76
2022/08/12 17:24:19;;;;;;;3.28;2.40;;;;;;;32.01;31.99;101793.19;5972606;29;20232;-74
2022/08/12 17:27:45;;;;;;;3.00;2.45;;;;;;;31.78;32.37;101796.13;5976322;29;20231;-77
2022/08/12 17:31:08;;;;;;;6.32;3.78;;;;;;;31.65;32.67;101795.66;5970892;29;20315;-75
2022/08/12 17:38:12;;;;;;;4.78;3.20;;;;;;;31.25;32.89;101798.50;5966309;29;20239;-76
2022/08/12 17:41:34;;;;;;;4.63;2.78;;;;;;;30.90;33.42;101804.22;5981483;29;20244;-77
2022/08/12 17:44:57;;;;;;;3.22;2.97;;;;;;;30.66;34.13;101803.44;5979801;29;20236;-77
2022/08/12 17:48:20;;;;;;;4.38;3.28;;;;;;;30.55;34.49;101814.59;5968440;29;20260;-77
2022/08/12 17:51:41;;;;;;;4.78;2.20;;;;;;;30.45;34.36;101818.00;5979690;29;20235;-77